sensor_id;sensor_type;location;lat;lon;timestamp;P1;durP1;ratioP1;P2;durP2;ratioP2
55210;SDS011;41082;52.822;6.666;2022-10-16T00:01:24;6.15;;;0.93;;
55210;SDS011;41082;52.822;6.666;2022-10-16T00:03:51;5.88;;;0.70;;
55210;SDS011;41082;52.822;6.666;2022-10-16T00:06:17;7.13;;;0.80;;
55210;SDS011;41082;52.822;6.666;2022-10-16T00:08:45;4.30;;;0.68;;
55210;SDS011;41082;52.822;6.666;2022-10-16T00:13:40;3.85;;;0.80;;
55210;SDS011;41082;52.822;6.666;2022-10-16T00:16:07;4.43;;;0.60;;
55210;SDS011;41082;52.822;6.666;2022-10-16T00:18:33;5.90;;;0.90;;
55210;SDS011;41082;52.822;6.666;2022-10-16T00:21:10;4.47;;;0.80;;
55210;SDS011;41082;52.822;6.666;2022-10-16T00:23:38;7.32;;;1.00;;
55210;SDS011;41082;52.822;6.666;2022-10-16T00:26:06;4.57;;;0.68;;
55210;SDS011;41082;52.822;6.666;2022-10-16T00:28:35;6.53;;;0.65;;
55210;SDS011;41082;52.822;6.666;2022-10-16T00:31:04;3.47;;;0.52;;
55210;SDS011;41082;52.822;6.666;2022-10-16T00:33:35;4.68;;;1.00;;
55210;SDS011;41082;52.822;6.666;2022-10-16T00:36:01;3.80;;;0.50;;
55210;SDS011;41082;52.822;6.666;2022-10-16T00:38:28;5.20;;;0.70;;
55210;SDS011;41082;52.822;6.666;2022-10-16T00:40:55;4.85;;;0.70;;
55210;SDS011;41082;52.822;6.666;2022-10-16T00:46:21;6.47;;;0.70;;
55210;SDS011;41082;52.822;6.666;2022-10-16T00:48:51;3.90;;;0.77;;
55210;SDS011;41082;52.822;6.666;2022-10-16T00:51:25;7.28;;;0.68;;
55210;SDS011;41082;52.822;6.666;2022-10-16T00:53:55;4.90;;;0.90;;
55210;SDS011;41082;52.822;6.666;2022-10-16T00:56:21;6.72;;;0.60;;
55210;SDS011;41082;52.822;6.666;2022-10-16T00:58:47;10.07;;;1.73;;
55210;SDS011;41082;52.822;6.666;2022-10-16T01:01:12;6.63;;;1.17;;
55210;SDS011;41082;52.822;6.666;2022-10-16T01:03:38;8.40;;;0.70;;
55210;SDS011;41082;52.822;6.666;2022-10-16T01:08:49;3.92;;;0.60;;
55210;SDS011;41082;52.822;6.666;2022-10-16T01:11:33;8.15;;;0.70;;
55210;SDS011;41082;52.822;6.666;2022-10-16T01:14:25;8.38;;;1.17;;
55210;SDS011;41082;52.822;6.666;2022-10-16T01:17:12;3.33;;;0.75;;
55210;SDS011;41082;52.822;6.666;2022-10-16T01:19:48;6.40;;;0.88;;
55210;SDS011;41082;52.822;6.666;2022-10-16T01:22:16;7.10;;;1.48;;
55210;SDS011;41082;52.822;6.666;2022-10-16T01:24:44;9.10;;;1.73;;
55210;SDS011;41082;52.822;6.666;2022-10-16T01:32:41;5.55;;;1.10;;
55210;SDS011;41082;52.822;6.666;2022-10-16T01:35:19;3.03;;;0.88;;
55210;SDS011;41082;52.822;6.666;2022-10-16T01:38:31;3.92;;;0.63;;
55210;SDS011;41082;52.822;6.666;2022-10-16T01:40:53;6.30;;;1.17;;
55210;SDS011;41082;52.822;6.666;2022-10-16T01:43:30;6.28;;;0.90;;
55210;SDS011;41082;52.822;6.666;2022-10-16T01:46:01;6.20;;;1.23;;
55210;SDS011;41082;52.822;6.666;2022-10-16T01:48:27;4.40;;;1.25;;
55210;SDS011;41082;52.822;6.666;2022-10-16T01:51:06;4.10;;;0.80;;
55210;SDS011;41082;52.822;6.666;2022-10-16T01:53:37;7.75;;;1.58;;
55210;SDS011;41082;52.822;6.666;2022-10-16T01:56:05;5.65;;;1.10;;
55210;SDS011;41082;52.822;6.666;2022-10-16T01:58:35;5.00;;;1.02;;
55210;SDS011;41082;52.822;6.666;2022-10-16T02:01:05;5.57;;;1.02;;
55210;SDS011;41082;52.822;6.666;2022-10-16T02:03:34;3.90;;;1.25;;
55210;SDS011;41082;52.822;6.666;2022-10-16T02:06:02;3.42;;;0.90;;
55210;SDS011;41082;52.822;6.666;2022-10-16T02:08:28;3.92;;;1.35;;
55210;SDS011;41082;52.822;6.666;2022-10-16T02:10:56;9.00;;;0.98;;
55210;SDS011;41082;52.822;6.666;2022-10-16T02:16:12;4.57;;;0.95;;
55210;SDS011;41082;52.822;6.666;2022-10-16T02:18:39;4.68;;;0.95;;
55210;SDS011;41082;52.822;6.666;2022-10-16T02:21:13;5.07;;;1.08;;
55210;SDS011;41082;52.822;6.666;2022-10-16T02:29:16;1.75;;;0.80;;
55210;SDS011;41082;52.822;6.666;2022-10-16T02:31:46;3.75;;;0.68;;
55210;SDS011;41082;52.822;6.666;2022-10-16T02:34:17;4.97;;;1.00;;
55210;SDS011;41082;52.822;6.666;2022-10-16T02:36:44;4.47;;;1.13;;
55210;SDS011;41082;52.822;6.666;2022-10-16T02:39:11;4.13;;;0.75;;
55210;SDS011;41082;52.822;6.666;2022-10-16T02:41:37;2.80;;;0.85;;
55210;SDS011;41082;52.822;6.666;2022-10-16T02:44:03;9.75;;;1.50;;
55210;SDS011;41082;52.822;6.666;2022-10-16T02:46:28;4.60;;;0.70;;
55210;SDS011;41082;52.822;6.666;2022-10-16T02:48:54;2.45;;;0.52;;
55210;SDS011;41082;52.822;6.666;2022-10-16T02:51:20;4.10;;;0.85;;
55210;SDS011;41082;52.822;6.666;2022-10-16T02:53:45;6.05;;;0.82;;
55210;SDS011;41082;52.822;6.666;2022-10-16T02:56:11;5.28;;;0.93;;
55210;SDS011;41082;52.822;6.666;2022-10-16T02:58:36;4.47;;;0.98;;
55210;SDS011;41082;52.822;6.666;2022-10-16T03:01:02;7.00;;;0.93;;
55210;SDS011;41082;52.822;6.666;2022-10-16T03:03:28;6.53;;;1.40;;
55210;SDS011;41082;52.822;6.666;2022-10-16T03:05:53;3.03;;;0.90;;
55210;SDS011;41082;52.822;6.666;2022-10-16T03:08:19;5.88;;;1.20;;
55210;SDS011;41082;52.822;6.666;2022-10-16T03:10:48;2.63;;;0.90;;
55210;SDS011;41082;52.822;6.666;2022-10-16T03:13:15;4.40;;;0.90;;
55210;SDS011;41082;52.822;6.666;2022-10-16T03:15:40;5.72;;;1.13;;
55210;SDS011;41082;52.822;6.666;2022-10-16T03:18:06;5.13;;;0.90;;
55210;SDS011;41082;52.822;6.666;2022-10-16T03:20:32;2.97;;;0.85;;
55210;SDS011;41082;52.822;6.666;2022-10-16T03:22:57;2.85;;;0.95;;
55210;SDS011;41082;52.822;6.666;2022-10-16T03:25:23;4.50;;;0.88;;
55210;SDS011;41082;52.822;6.666;2022-10-16T03:27:49;4.18;;;1.25;;
55210;SDS011;41082;52.822;6.666;2022-10-16T03:30:14;3.13;;;1.13;;
55210;SDS011;41082;52.822;6.666;2022-10-16T03:32:41;4.13;;;1.10;;
55210;SDS011;41082;52.822;6.666;2022-10-16T03:35:08;3.30;;;1.13;;
55210;SDS011;41082;52.822;6.666;2022-10-16T03:37:34;5.05;;;1.25;;
55210;SDS011;41082;52.822;6.666;2022-10-16T03:39:59;5.13;;;1.60;;
55210;SDS011;41082;52.822;6.666;2022-10-16T03:42:25;3.97;;;0.95;;
55210;SDS011;41082;52.822;6.666;2022-10-16T03:44:51;3.00;;;1.17;;
55210;SDS011;41082;52.822;6.666;2022-10-16T03:47:16;4.22;;;1.10;;
55210;SDS011;41082;52.822;6.666;2022-10-16T03:49:46;2.55;;;0.95;;
55210;SDS011;41082;52.822;6.666;2022-10-16T03:52:12;4.18;;;1.00;;
55210;SDS011;41082;52.822;6.666;2022-10-16T03:54:38;5.15;;;1.17;;
55210;SDS011;41082;52.822;6.666;2022-10-16T03:57:03;6.43;;;1.38;;
55210;SDS011;41082;52.822;6.666;2022-10-16T03:59:29;5.13;;;1.10;;
55210;SDS011;41082;52.822;6.666;2022-10-16T04:01:55;5.90;;;1.85;;
55210;SDS011;41082;52.822;6.666;2022-10-16T04:04:20;6.40;;;1.63;;
55210;SDS011;41082;52.822;6.666;2022-10-16T04:06:46;4.30;;;1.48;;
55210;SDS011;41082;52.822;6.666;2022-10-16T04:09:12;5.40;;;1.10;;
55210;SDS011;41082;52.822;6.666;2022-10-16T04:11:37;4.20;;;1.40;;
55210;SDS011;41082;52.822;6.666;2022-10-16T04:14:03;3.13;;;1.23;;
55210;SDS011;41082;52.822;6.666;2022-10-16T04:16:29;2.78;;;1.30;;
55210;SDS011;41082;52.822;6.666;2022-10-16T04:18:55;4.93;;;1.25;;
55210;SDS011;41082;52.822;6.666;2022-10-16T04:21:20;3.25;;;1.33;;
55210;SDS011;41082;52.822;6.666;2022-10-16T04:23:47;4.90;;;1.50;;
55210;SDS011;41082;52.822;6.666;2022-10-16T04:26:13;3.95;;;1.58;;
55210;SDS011;41082;52.822;6.666;2022-10-16T04:28:38;5.13;;;1.90;;
55210;SDS011;41082;52.822;6.666;2022-10-16T04:31:04;6.28;;;1.50;;
55210;SDS011;41082;52.822;6.666;2022-10-16T04:33:31;2.78;;;1.50;;
55210;SDS011;41082;52.822;6.666;2022-10-16T04:36:00;4.30;;;1.67;;
55210;SDS011;41082;52.822;6.666;2022-10-16T04:38:27;5.97;;;1.25;;
55210;SDS011;41082;52.822;6.666;2022-10-16T04:40:52;3.17;;;1.60;;
55210;SDS011;41082;52.822;6.666;2022-10-16T04:43:18;4.50;;;2.03;;
55210;SDS011;41082;52.822;6.666;2022-10-16T04:45:44;5.20;;;1.70;;
55210;SDS011;41082;52.822;6.666;2022-10-16T04:48:09;5.00;;;1.80;;
55210;SDS011;41082;52.822;6.666;2022-10-16T04:50:35;4.88;;;1.73;;
55210;SDS011;41082;52.822;6.666;2022-10-16T04:53:01;7.00;;;2.17;;
55210;SDS011;41082;52.822;6.666;2022-10-16T04:55:27;4.55;;;2.03;;
55210;SDS011;41082;52.822;6.666;2022-10-16T04:57:52;4.72;;;1.92;;
55210;SDS011;41082;52.822;6.666;2022-10-16T05:00:18;6.78;;;2.17;;
55210;SDS011;41082;52.822;6.666;2022-10-16T05:02:43;4.07;;;2.13;;
55210;SDS011;41082;52.822;6.666;2022-10-16T05:05:09;4.65;;;2.25;;
55210;SDS011;41082;52.822;6.666;2022-10-16T05:07:35;6.88;;;2.00;;
55210;SDS011;41082;52.822;6.666;2022-10-16T05:10:00;4.20;;;1.90;;
55210;SDS011;41082;52.822;6.666;2022-10-16T05:12:26;4.78;;;1.98;;
55210;SDS011;41082;52.822;6.666;2022-10-16T05:14:51;5.50;;;1.98;;
55210;SDS011;41082;52.822;6.666;2022-10-16T05:17:17;4.97;;;2.28;;
55210;SDS011;41082;52.822;6.666;2022-10-16T05:19:43;3.95;;;1.90;;
55210;SDS011;41082;52.822;6.666;2022-10-16T05:22:08;3.72;;;1.80;;
55210;SDS011;41082;52.822;6.666;2022-10-16T05:24:34;3.40;;;2.05;;
55210;SDS011;41082;52.822;6.666;2022-10-16T05:26:59;4.32;;;2.30;;
55210;SDS011;41082;52.822;6.666;2022-10-16T05:29:25;2.35;;;1.50;;
55210;SDS011;41082;52.822;6.666;2022-10-16T05:31:51;4.93;;;1.90;;
55210;SDS011;41082;52.822;6.666;2022-10-16T05:34:17;6.22;;;1.67;;
55210;SDS011;41082;52.822;6.666;2022-10-16T05:36:43;4.60;;;1.92;;
55210;SDS011;41082;52.822;6.666;2022-10-16T05:39:10;3.70;;;1.75;;
55210;SDS011;41082;52.822;6.666;2022-10-16T05:41:36;5.43;;;2.50;;
55210;SDS011;41082;52.822;6.666;2022-10-16T05:44:05;4.20;;;1.40;;
55210;SDS011;41082;52.822;6.666;2022-10-16T05:46:31;4.45;;;1.80;;
55210;SDS011;41082;52.822;6.666;2022-10-16T05:48:57;4.43;;;1.80;;
55210;SDS011;41082;52.822;6.666;2022-10-16T05:51:23;4.18;;;1.70;;
55210;SDS011;41082;52.822;6.666;2022-10-16T05:53:48;2.92;;;1.48;;
55210;SDS011;41082;52.822;6.666;2022-10-16T05:56:14;3.15;;;1.65;;
55210;SDS011;41082;52.822;6.666;2022-10-16T05:58:40;3.15;;;1.63;;
55210;SDS011;41082;52.822;6.666;2022-10-16T06:01:07;5.65;;;1.77;;
55210;SDS011;41082;52.822;6.666;2022-10-16T06:03:38;3.35;;;1.50;;
55210;SDS011;41082;52.822;6.666;2022-10-16T06:06:24;3.90;;;1.50;;
55210;SDS011;41082;52.822;6.666;2022-10-16T06:08:51;7.55;;;1.50;;
55210;SDS011;41082;52.822;6.666;2022-10-16T06:11:21;2.33;;;1.02;;
55210;SDS011;41082;52.822;6.666;2022-10-16T06:13:53;4.03;;;1.15;;
55210;SDS011;41082;52.822;6.666;2022-10-16T06:16:21;7.10;;;1.48;;
55210;SDS011;41082;52.822;6.666;2022-10-16T06:18:47;2.85;;;1.80;;
55210;SDS011;41082;52.822;6.666;2022-10-16T06:21:19;4.43;;;1.13;;
55210;SDS011;41082;52.822;6.666;2022-10-16T06:23:47;3.40;;;1.08;;
55210;SDS011;41082;52.822;6.666;2022-10-16T06:26:14;4.07;;;1.33;;
55210;SDS011;41082;52.822;6.666;2022-10-16T06:28:41;3.25;;;1.10;;
55210;SDS011;41082;52.822;6.666;2022-10-16T06:31:07;3.97;;;1.52;;
55210;SDS011;41082;52.822;6.666;2022-10-16T06:33:34;5.68;;;1.10;;
55210;SDS011;41082;52.822;6.666;2022-10-16T06:36:01;5.13;;;1.30;;
55210;SDS011;41082;52.822;6.666;2022-10-16T06:38:28;3.53;;;1.20;;
55210;SDS011;41082;52.822;6.666;2022-10-16T06:40:54;3.53;;;1.17;;
55210;SDS011;41082;52.822;6.666;2022-10-16T06:43:20;5.00;;;1.15;;
55210;SDS011;41082;52.822;6.666;2022-10-16T06:45:52;3.35;;;1.17;;
55210;SDS011;41082;52.822;6.666;2022-10-16T06:48:19;3.22;;;1.00;;
55210;SDS011;41082;52.822;6.666;2022-10-16T06:50:54;4.35;;;0.95;;
55210;SDS011;41082;52.822;6.666;2022-10-16T06:53:24;3.25;;;1.00;;
55210;SDS011;41082;52.822;6.666;2022-10-16T06:55:50;3.58;;;0.90;;
55210;SDS011;41082;52.822;6.666;2022-10-16T06:58:16;3.50;;;0.88;;
55210;SDS011;41082;52.822;6.666;2022-10-16T07:00:42;6.38;;;1.00;;
55210;SDS011;41082;52.822;6.666;2022-10-16T07:03:08;7.25;;;1.30;;
55210;SDS011;41082;52.822;6.666;2022-10-16T07:05:40;1.63;;;0.75;;
55210;SDS011;41082;52.822;6.666;2022-10-16T07:08:07;3.78;;;1.13;;
55210;SDS011;41082;52.822;6.666;2022-10-16T07:10:33;4.25;;;0.80;;
55210;SDS011;41082;52.822;6.666;2022-10-16T07:12:59;6.18;;;0.82;;
55210;SDS011;41082;52.822;6.666;2022-10-16T07:15:25;3.47;;;1.05;;
55210;SDS011;41082;52.822;6.666;2022-10-16T07:17:51;4.82;;;0.80;;
55210;SDS011;41082;52.822;6.666;2022-10-16T07:20:16;3.58;;;0.70;;
55210;SDS011;41082;52.822;6.666;2022-10-16T07:22:42;4.10;;;0.88;;
55210;SDS011;41082;52.822;6.666;2022-10-16T07:25:08;4.78;;;0.80;;
55210;SDS011;41082;52.822;6.666;2022-10-16T07:27:34;3.33;;;0.85;;
55210;SDS011;41082;52.822;6.666;2022-10-16T07:30:00;6.45;;;1.02;;
55210;SDS011;41082;52.822;6.666;2022-10-16T07:32:26;4.68;;;1.48;;
55210;SDS011;41082;52.822;6.666;2022-10-16T07:34:52;5.85;;;0.80;;
55210;SDS011;41082;52.822;6.666;2022-10-16T07:37:18;4.03;;;0.98;;
55210;SDS011;41082;52.822;6.666;2022-10-16T07:39:44;4.55;;;0.80;;
55210;SDS011;41082;52.822;6.666;2022-10-16T07:42:09;6.68;;;1.25;;
55210;SDS011;41082;52.822;6.666;2022-10-16T07:44:35;2.85;;;0.98;;
55210;SDS011;41082;52.822;6.666;2022-10-16T07:47:00;5.88;;;1.33;;
55210;SDS011;41082;52.822;6.666;2022-10-16T07:49:26;4.40;;;0.88;;
55210;SDS011;41082;52.822;6.666;2022-10-16T07:51:52;4.07;;;0.60;;
55210;SDS011;41082;52.822;6.666;2022-10-16T07:54:17;2.55;;;0.65;;
55210;SDS011;41082;52.822;6.666;2022-10-16T07:56:43;2.60;;;0.82;;
55210;SDS011;41082;52.822;6.666;2022-10-16T07:59:08;3.20;;;1.17;;
55210;SDS011;41082;52.822;6.666;2022-10-16T08:01:34;2.03;;;0.50;;
55210;SDS011;41082;52.822;6.666;2022-10-16T08:04:00;2.45;;;0.63;;
55210;SDS011;41082;52.822;6.666;2022-10-16T08:06:25;4.47;;;0.50;;
55210;SDS011;41082;52.822;6.666;2022-10-16T08:08:51;4.57;;;0.60;;
55210;SDS011;41082;52.822;6.666;2022-10-16T08:11:17;3.55;;;0.70;;
55210;SDS011;41082;52.822;6.666;2022-10-16T08:13:42;2.78;;;0.52;;
55210;SDS011;41082;52.822;6.666;2022-10-16T08:16:08;5.47;;;0.60;;
55210;SDS011;41082;52.822;6.666;2022-10-16T08:18:38;3.05;;;0.70;;
55210;SDS011;41082;52.822;6.666;2022-10-16T08:21:05;4.63;;;0.50;;
55210;SDS011;41082;52.822;6.666;2022-10-16T08:23:32;4.70;;;0.47;;
55210;SDS011;41082;52.822;6.666;2022-10-16T08:26:01;6.18;;;0.47;;
55210;SDS011;41082;52.822;6.666;2022-10-16T08:28:29;2.42;;;0.40;;
55210;SDS011;41082;52.822;6.666;2022-10-16T08:30:55;3.15;;;0.40;;
55210;SDS011;41082;52.822;6.666;2022-10-16T08:33:21;2.35;;;0.38;;
55210;SDS011;41082;52.822;6.666;2022-10-16T08:35:53;3.28;;;0.50;;
55210;SDS011;41082;52.822;6.666;2022-10-16T08:38:19;2.08;;;0.40;;
55210;SDS011;41082;52.822;6.666;2022-10-16T08:40:45;3.58;;;0.52;;
55210;SDS011;41082;52.822;6.666;2022-10-16T08:46:07;4.95;;;1.33;;
55210;SDS011;41082;52.822;6.666;2022-10-16T08:48:52;1.98;;;0.43;;
55210;SDS011;41082;52.822;6.666;2022-10-16T08:51:21;5.35;;;0.70;;
55210;SDS011;41082;52.822;6.666;2022-10-16T08:53:59;5.45;;;0.82;;
55210;SDS011;41082;52.822;6.666;2022-10-16T08:56:28;5.35;;;0.70;;
55210;SDS011;41082;52.822;6.666;2022-10-16T08:58:54;3.92;;;0.60;;
55210;SDS011;41082;52.822;6.666;2022-10-16T09:01:22;4.45;;;0.93;;
55210;SDS011;41082;52.822;6.666;2022-10-16T09:09:15;5.82;;;0.90;;
55210;SDS011;41082;52.822;6.666;2022-10-16T09:12:39;3.47;;;0.80;;
55210;SDS011;41082;52.822;6.666;2022-10-16T09:15:11;4.18;;;0.77;;
55210;SDS011;41082;52.822;6.666;2022-10-16T09:17:48;7.25;;;0.85;;
55210;SDS011;41082;52.822;6.666;2022-10-16T09:20:37;5.53;;;0.50;;
55210;SDS011;41082;52.822;6.666;2022-10-16T09:23:22;4.97;;;0.73;;
55210;SDS011;41082;52.822;6.666;2022-10-16T09:25:52;4.53;;;0.60;;
55210;SDS011;41082;52.822;6.666;2022-10-16T09:28:19;3.92;;;0.55;;
55210;SDS011;41082;52.822;6.666;2022-10-16T09:30:45;3.95;;;0.63;;
55210;SDS011;41082;52.822;6.666;2022-10-16T09:33:13;6.15;;;0.60;;
55210;SDS011;41082;52.822;6.666;2022-10-16T09:35:42;5.70;;;0.70;;
55210;SDS011;41082;52.822;6.666;2022-10-16T09:38:24;8.57;;;0.95;;
55210;SDS011;41082;52.822;6.666;2022-10-16T09:40:54;4.85;;;0.55;;
55210;SDS011;41082;52.822;6.666;2022-10-16T09:43:26;4.20;;;0.47;;
55210;SDS011;41082;52.822;6.666;2022-10-16T09:45:58;7.47;;;0.63;;
55210;SDS011;41082;52.822;6.666;2022-10-16T09:48:37;7.65;;;0.60;;
55210;SDS011;41082;52.822;6.666;2022-10-16T09:51:16;8.00;;;0.40;;
55210;SDS011;41082;52.822;6.666;2022-10-16T09:53:58;7.93;;;1.17;;
55210;SDS011;41082;52.822;6.666;2022-10-16T09:56:30;10.25;;;0.70;;
55210;SDS011;41082;52.822;6.666;2022-10-16T09:59:02;6.28;;;0.80;;
55210;SDS011;41082;52.822;6.666;2022-10-16T10:01:49;6.07;;;0.68;;
55210;SDS011;41082;52.822;6.666;2022-10-16T10:04:19;12.75;;;0.93;;
55210;SDS011;41082;52.822;6.666;2022-10-16T10:06:56;8.03;;;0.60;;
55210;SDS011;41082;52.822;6.666;2022-10-16T10:09:26;11.05;;;0.80;;
55210;SDS011;41082;52.822;6.666;2022-10-16T10:14:24;10.05;;;1.30;;
55210;SDS011;41082;52.822;6.666;2022-10-16T10:17:01;8.18;;;0.65;;
55210;SDS011;41082;52.822;6.666;2022-10-16T10:19:37;6.72;;;0.70;;
55210;SDS011;41082;52.822;6.666;2022-10-16T10:22:16;9.50;;;0.75;;
55210;SDS011;41082;52.822;6.666;2022-10-16T10:24:43;4.07;;;0.50;;
55210;SDS011;41082;52.822;6.666;2022-10-16T10:27:35;8.07;;;0.68;;
55210;SDS011;41082;52.822;6.666;2022-10-16T10:46:42;8.43;;;1.02;;
55210;SDS011;41082;52.822;6.666;2022-10-16T10:57:21;7.50;;;0.73;;
55210;SDS011;41082;52.822;6.666;2022-10-16T11:08:07;6.47;;;0.65;;
55210;SDS011;41082;52.822;6.666;2022-10-16T11:10:47;10.70;;;0.98;;
55210;SDS011;41082;52.822;6.666;2022-10-16T11:13:28;7.07;;;0.50;;
55210;SDS011;41082;52.822;6.666;2022-10-16T11:15:58;6.80;;;0.93;;
55210;SDS011;41082;52.822;6.666;2022-10-16T11:18:37;6.78;;;1.05;;
55210;SDS011;41082;52.822;6.666;2022-10-16T11:21:20;10.45;;;1.48;;
55210;SDS011;41082;52.822;6.666;2022-10-16T11:26:20;8.88;;;1.08;;
55210;SDS011;41082;52.822;6.666;2022-10-16T11:28:52;5.60;;;0.93;;
55210;SDS011;41082;52.822;6.666;2022-10-16T11:36:42;10.85;;;1.00;;
55210;SDS011;41082;52.822;6.666;2022-10-16T11:39:28;12.18;;;0.80;;
55210;SDS011;41082;52.822;6.666;2022-10-16T11:44:48;10.02;;;1.08;;
55210;SDS011;41082;52.822;6.666;2022-10-16T11:47:34;10.20;;;0.63;;
55210;SDS011;41082;52.822;6.666;2022-10-16T11:55:20;6.93;;;0.47;;
55210;SDS011;41082;52.822;6.666;2022-10-16T11:58:33;7.85;;;0.70;;
55210;SDS011;41082;52.822;6.666;2022-10-16T12:00:51;8.40;;;1.38;;
55210;SDS011;41082;52.822;6.666;2022-10-16T12:10:53;8.60;;;0.75;;
55210;SDS011;41082;52.822;6.666;2022-10-16T12:13:33;6.38;;;0.57;;
55210;SDS011;41082;52.822;6.666;2022-10-16T12:18:44;12.05;;;1.40;;
55210;SDS011;41082;52.822;6.666;2022-10-16T12:21:11;6.70;;;0.52;;
55210;SDS011;41082;52.822;6.666;2022-10-16T12:23:50;7.63;;;0.57;;
55210;SDS011;41082;52.822;6.666;2022-10-16T12:26:51;7.40;;;0.82;;
55210;SDS011;41082;52.822;6.666;2022-10-16T12:29:33;9.75;;;1.25;;
55210;SDS011;41082;52.822;6.666;2022-10-16T12:31:59;9.35;;;0.80;;
55210;SDS011;41082;52.822;6.666;2022-10-16T12:34:29;12.27;;;0.88;;
55210;SDS011;41082;52.822;6.666;2022-10-16T12:37:13;8.98;;;0.88;;
55210;SDS011;41082;52.822;6.666;2022-10-16T12:39:48;6.05;;;0.70;;
55210;SDS011;41082;52.822;6.666;2022-10-16T12:44:53;9.13;;;0.70;;
55210;SDS011;41082;52.822;6.666;2022-10-16T12:47:23;9.85;;;1.02;;
55210;SDS011;41082;52.822;6.666;2022-10-16T12:49:53;11.27;;;1.38;;
55210;SDS011;41082;52.822;6.666;2022-10-16T12:55:16;9.07;;;0.60;;
55210;SDS011;41082;52.822;6.666;2022-10-16T13:09:16;9.02;;;1.20;;
55210;SDS011;41082;52.822;6.666;2022-10-16T13:11:56;6.38;;;0.60;;
55210;SDS011;41082;52.822;6.666;2022-10-16T13:20:15;10.35;;;0.85;;
55210;SDS011;41082;52.822;6.666;2022-10-16T13:28:30;4.03;;;0.45;;
55210;SDS011;41082;52.822;6.666;2022-10-16T13:30:58;10.82;;;1.33;;
55210;SDS011;41082;52.822;6.666;2022-10-16T13:36:23;9.70;;;1.60;;
55210;SDS011;41082;52.822;6.666;2022-10-16T13:39:15;7.35;;;0.68;;
55210;SDS011;41082;52.822;6.666;2022-10-16T13:41:46;6.90;;;1.05;;
55210;SDS011;41082;52.822;6.666;2022-10-16T13:44:23;4.82;;;0.45;;
55210;SDS011;41082;52.822;6.666;2022-10-16T13:46:57;5.50;;;0.90;;
55210;SDS011;41082;52.822;6.666;2022-10-16T13:49:26;6.65;;;0.57;;
55210;SDS011;41082;52.822;6.666;2022-10-16T13:51:55;5.35;;;0.65;;
55210;SDS011;41082;52.822;6.666;2022-10-16T13:54:22;4.93;;;0.50;;
55210;SDS011;41082;52.822;6.666;2022-10-16T13:56:49;13.50;;;1.00;;
55210;SDS011;41082;52.822;6.666;2022-10-16T13:59:48;7.93;;;1.10;;
55210;SDS011;41082;52.822;6.666;2022-10-16T14:02:25;8.20;;;1.23;;
55210;SDS011;41082;52.822;6.666;2022-10-16T14:04:52;5.82;;;0.85;;
55210;SDS011;41082;52.822;6.666;2022-10-16T14:07:23;7.30;;;0.38;;
55210;SDS011;41082;52.822;6.666;2022-10-16T14:09:51;7.70;;;0.98;;
55210;SDS011;41082;52.822;6.666;2022-10-16T14:12:18;11.85;;;0.93;;
55210;SDS011;41082;52.822;6.666;2022-10-16T14:14:46;7.07;;;0.55;;
55210;SDS011;41082;52.822;6.666;2022-10-16T14:17:14;5.70;;;0.50;;
55210;SDS011;41082;52.822;6.666;2022-10-16T14:19:45;7.07;;;0.70;;
55210;SDS011;41082;52.822;6.666;2022-10-16T14:25:02;7.78;;;0.80;;
55210;SDS011;41082;52.822;6.666;2022-10-16T14:27:55;9.00;;;0.60;;
55210;SDS011;41082;52.822;6.666;2022-10-16T14:30:26;9.32;;;0.77;;
55210;SDS011;41082;52.822;6.666;2022-10-16T14:35:34;9.32;;;0.93;;
55210;SDS011;41082;52.822;6.666;2022-10-16T14:38:04;7.55;;;0.47;;
55210;SDS011;41082;52.822;6.666;2022-10-16T14:40:32;8.00;;;0.63;;
55210;SDS011;41082;52.822;6.666;2022-10-16T14:43:03;5.38;;;0.50;;
55210;SDS011;41082;52.822;6.666;2022-10-16T14:45:31;6.85;;;0.63;;
55210;SDS011;41082;52.822;6.666;2022-10-16T14:48:03;6.40;;;0.60;;
55210;SDS011;41082;52.822;6.666;2022-10-16T14:50:38;8.32;;;0.75;;
55210;SDS011;41082;52.822;6.666;2022-10-16T14:53:08;6.38;;;0.77;;
55210;SDS011;41082;52.822;6.666;2022-10-16T14:55:37;10.93;;;0.70;;
55210;SDS011;41082;52.822;6.666;2022-10-16T14:58:03;6.78;;;0.80;;
55210;SDS011;41082;52.822;6.666;2022-10-16T15:00:29;10.98;;;0.70;;
55210;SDS011;41082;52.822;6.666;2022-10-16T15:02:54;7.95;;;1.00;;
55210;SDS011;41082;52.822;6.666;2022-10-16T15:05:22;5.18;;;0.70;;
55210;SDS011;41082;52.822;6.666;2022-10-16T15:07:50;9.23;;;0.90;;
55210;SDS011;41082;52.822;6.666;2022-10-16T15:10:16;7.57;;;1.02;;
55210;SDS011;41082;52.822;6.666;2022-10-16T15:12:43;9.27;;;0.80;;
55210;SDS011;41082;52.822;6.666;2022-10-16T15:15:21;7.30;;;0.65;;
55210;SDS011;41082;52.822;6.666;2022-10-16T15:17:49;4.35;;;0.40;;
55210;SDS011;41082;52.822;6.666;2022-10-16T15:20:18;4.97;;;0.80;;
55210;SDS011;41082;52.822;6.666;2022-10-16T15:22:44;13.68;;;0.95;;
55210;SDS011;41082;52.822;6.666;2022-10-16T15:28:02;6.55;;;0.60;;
55210;SDS011;41082;52.822;6.666;2022-10-16T15:30:29;10.98;;;0.60;;
55210;SDS011;41082;52.822;6.666;2022-10-16T15:32:55;5.88;;;0.50;;
55210;SDS011;41082;52.822;6.666;2022-10-16T15:35:21;9.75;;;0.63;;
55210;SDS011;41082;52.822;6.666;2022-10-16T15:37:47;8.32;;;0.93;;
55210;SDS011;41082;52.822;6.666;2022-10-16T15:40:13;7.03;;;0.57;;
55210;SDS011;41082;52.822;6.666;2022-10-16T15:42:39;7.80;;;0.60;;
55210;SDS011;41082;52.822;6.666;2022-10-16T15:45:05;11.63;;;0.52;;
55210;SDS011;41082;52.822;6.666;2022-10-16T15:47:32;10.18;;;1.10;;
55210;SDS011;41082;52.822;6.666;2022-10-16T15:49:57;8.73;;;1.75;;
55210;SDS011;41082;52.822;6.666;2022-10-16T15:52:23;14.35;;;4.18;;
55210;SDS011;41082;52.822;6.666;2022-10-16T15:54:49;19.75;;;6.35;;
55210;SDS011;41082;52.822;6.666;2022-10-16T15:57:14;19.80;;;8.73;;
55210;SDS011;41082;52.822;6.666;2022-10-16T15:59:40;13.43;;;4.70;;
55210;SDS011;41082;52.822;6.666;2022-10-16T16:02:06;9.75;;;2.35;;
55210;SDS011;41082;52.822;6.666;2022-10-16T16:04:32;8.60;;;0.95;;
55210;SDS011;41082;52.822;6.666;2022-10-16T16:06:58;9.80;;;1.20;;
55210;SDS011;41082;52.822;6.666;2022-10-16T16:09:24;9.30;;;1.17;;
55210;SDS011;41082;52.822;6.666;2022-10-16T16:11:49;15.70;;;2.53;;
55210;SDS011;41082;52.822;6.666;2022-10-16T16:14:17;13.15;;;2.03;;
55210;SDS011;41082;52.822;6.666;2022-10-16T16:16:42;16.27;;;2.30;;
55210;SDS011;41082;52.822;6.666;2022-10-16T16:19:08;10.85;;;2.85;;
55210;SDS011;41082;52.822;6.666;2022-10-16T16:21:34;11.95;;;2.70;;
55210;SDS011;41082;52.822;6.666;2022-10-16T16:24:00;11.40;;;1.95;;
55210;SDS011;41082;52.822;6.666;2022-10-16T16:26:26;16.35;;;2.38;;
55210;SDS011;41082;52.822;6.666;2022-10-16T16:28:58;15.45;;;1.55;;
55210;SDS011;41082;52.822;6.666;2022-10-16T16:31:25;6.20;;;0.82;;
55210;SDS011;41082;52.822;6.666;2022-10-16T16:33:52;17.35;;;1.55;;
55210;SDS011;41082;52.822;6.666;2022-10-16T16:36:18;9.27;;;1.25;;
55210;SDS011;41082;52.822;6.666;2022-10-16T16:38:44;7.00;;;0.90;;
55210;SDS011;41082;52.822;6.666;2022-10-16T16:41:11;16.33;;;1.73;;
55210;SDS011;41082;52.822;6.666;2022-10-16T16:43:41;13.55;;;1.05;;
55210;SDS011;41082;52.822;6.666;2022-10-16T16:46:07;13.85;;;0.88;;
55210;SDS011;41082;52.822;6.666;2022-10-16T16:48:33;17.88;;;1.25;;
55210;SDS011;41082;52.822;6.666;2022-10-16T16:51:03;11.70;;;0.80;;
55210;SDS011;41082;52.822;6.666;2022-10-16T16:53:35;7.05;;;0.65;;
55210;SDS011;41082;52.822;6.666;2022-10-16T16:56:02;10.13;;;1.08;;
55210;SDS011;41082;52.822;6.666;2022-10-16T16:58:29;13.45;;;1.23;;
55210;SDS011;41082;52.822;6.666;2022-10-16T17:00:55;9.35;;;0.60;;
55210;SDS011;41082;52.822;6.666;2022-10-16T17:03:20;8.13;;;0.70;;
55210;SDS011;41082;52.822;6.666;2022-10-16T17:05:56;12.05;;;0.90;;
55210;SDS011;41082;52.822;6.666;2022-10-16T17:08:33;9.05;;;1.33;;
55210;SDS011;41082;52.822;6.666;2022-10-16T17:10:59;6.10;;;1.00;;